Time;durP1;ratioP1;P1;durP2;ratioP2;P2;SDS_P1;SDS_P2;PMS_P1;PMS_P2;Temp;Humidity;BMP_temperature;BMP_pressure;BME280_temperature;BME280_humidity;BME280_pressure;Samples;Min_cycle;Max_cycle;Signal;HPM_P1;HPM_P2
2022/02/26 00:00:05;;;;;;;11.33;2.53;;;5.00;99.90;;;;;;5046572;28;20255;-81
2022/02/26 00:02:31;;;;;;;7.50;2.78;;;4.90;99.90;;;;;;5036883;28;20226;-81
2022/02/26 00:04:56;;;;;;;9.30;2.93;;;4.90;99.90;;;;;;5044703;28;20256;-81
2022/02/26 00:07:22;;;;;;;10.07;3.20;;;4.90;99.90;;;;;;5041306;28;20197;-80
2022/02/26 00:09:48;;;;;;;9.97;3.00;;;4.90;99.90;;;;;;5040528;28;20272;-80
2022/02/26 00:12:13;;;;;;;10.33;2.90;;;4.90;99.90;;;;;;5038348;28;20189;-81
2022/02/26 00:14:39;;;;;;;7.07;2.90;;;4.90;99.90;;;;;;5040346;28;20200;-81
2022/02/26 00:17:05;;;;;;;7.67;2.30;;;4.80;99.90;;;;;;5018508;28;20281;-80
2022/02/26 00:19:32;;;;;;;6.93;2.58;;;4.80;99.90;;;;;;5035227;28;20651;-80
2022/02/26 00:21:58;;;;;;;6.65;3.10;;;4.80;99.90;;;;;;5040497;28;20359;-80
2022/02/26 00:24:24;;;;;;;11.07;3.50;;;4.80;99.90;;;;;;5046114;28;20188;-80
2022/02/26 00:26:50;;;;;;;7.57;2.70;;;4.80;99.90;;;;;;5047899;28;20212;-79
2022/02/26 00:29:17;;;;;;;6.32;3.45;;;4.80;99.90;;;;;;5027628;28;20583;-79
2022/02/26 00:31:42;;;;;;;12.60;5.78;;;4.70;99.90;;;;;;5040042;28;20170;-79
2022/02/26 00:34:11;;;;;;;9.17;3.90;;;4.70;99.90;;;;;;5043684;28;20181;-79
2022/02/26 00:36:37;;;;;;;8.63;3.42;;;4.70;99.90;;;;;;5042003;28;20177;-79
2022/02/26 00:39:04;;;;;;;7.00;3.03;;;4.70;99.90;;;;;;5041295;28;20169;-79
2022/02/26 00:41:30;;;;;;;8.75;2.88;;;4.70;99.90;;;;;;5046042;28;20182;-79
2022/02/26 00:43:56;;;;;;;10.80;2.93;;;4.70;99.90;;;;;;5022625;28;20174;-79
2022/02/26 00:46:22;;;;;;;12.82;3.28;;;4.60;99.90;;;;;;5037397;28;20636;-79
2022/02/26 00:49:48;;;;;;;6.83;3.67;;;4.60;99.90;;;;;;5037857;28;20613;-79
2022/02/26 00:51:43;;;;;;;7.65;3.40;;;4.70;99.90;;;;;;5043298;28;20185;-81
2022/02/26 00:54:08;;;;;;;10.70;3.30;;;4.60;99.90;;;;;;5042279;28;20188;-79
2022/02/26 00:56:34;;;;;;;10.13;3.47;;;4.60;99.90;;;;;;5041581;28;20192;-79
2022/02/26 00:59:00;;;;;;;13.50;3.80;;;4.60;99.90;;;;;;5039354;28;20220;-80
2022/02/26 01:01:25;;;;;;;9.57;3.17;;;4.70;99.90;;;;;;5039445;28;20253;-80
2022/02/26 01:03:51;;;;;;;10.23;3.90;;;4.70;99.90;;;;;;5021361;28;20188;-79
2022/02/26 01:06:17;;;;;;;12.27;4.67;;;4.70;99.90;;;;;;5042533;28;20208;-80
2022/02/26 01:08:43;;;;;;;5.93;3.70;;;4.70;99.90;;;;;;5044186;28;20180;-80
2022/02/26 01:11:08;;;;;;;13.10;4.60;;;4.70;99.90;;;;;;5041025;28;20203;-79
2022/02/26 01:13:34;;;;;;;11.10;4.63;;;4.80;99.90;;;;;;5041331;28;20177;-79
2022/02/26 01:16:00;;;;;;;13.57;4.83;;;4.80;99.90;;;;;;5039092;28;20580;-80
2022/02/26 01:18:26;;;;;;;11.30;4.25;;;4.90;99.90;;;;;;5047791;28;20575;-79
2022/02/26 01:20:52;;;;;;;8.07;3.93;;;4.90;99.90;;;;;;5021924;28;20204;-80
2022/02/26 01:23:18;;;;;;;10.23;3.57;;;4.90;99.90;;;;;;5025810;28;21157;-80
2022/02/26 01:25:44;;;;;;;11.43;3.73;;;4.90;99.90;;;;;;5045915;28;20201;-80
2022/02/26 01:28:10;;;;;;;9.87;3.40;;;4.90;99.90;;;;;;5035766;28;20583;-80
2022/02/26 01:30:35;;;;;;;8.23;2.90;;;5.00;99.90;;;;;;5037144;28;20251;-80
2022/02/26 01:33:01;;;;;;;8.47;3.97;;;5.00;99.90;;;;;;5042017;28;20170;-80
2022/02/26 01:35:27;;;;;;;12.33;4.93;;;5.00;99.90;;;;;;5047410;28;20571;-80
2022/02/26 01:37:53;;;;;;;9.27;3.53;;;5.00;99.90;;;;;;5021059;28;20185;-80
2022/02/26 01:40:18;;;;;;;7.50;3.83;;;5.10;99.90;;;;;;5039230;28;20612;-79
2022/02/26 01:42:45;;;;;;;8.77;3.00;;;5.10;99.90;;;;;;5040491;28;20177;-79
2022/02/26 01:45:13;;;;;;;9.05;4.00;;;5.10;99.90;;;;;;5022672;28;20568;-79
2022/02/26 01:47:39;;;;;;;9.77;4.25;;;5.10;99.90;;;;;;5036007;28;20224;-79
2022/02/26 01:50:06;;;;;;;10.48;5.25;;;5.20;99.90;;;;;;5041600;28;20197;-79
2022/02/26 01:52:32;;;;;;;12.65;5.68;;;5.20;99.90;;;;;;5039272;28;20176;-79
2022/02/26 01:54:59;;;;;;;14.30;5.00;;;5.20;99.90;;;;;;5045339;28;20180;-80
2022/02/26 01:57:25;;;;;;;12.45;5.45;;;5.20;99.90;;;;;;5047509;28;20177;-80
2022/02/26 01:59:51;;;;;;;10.90;4.22;;;5.20;99.90;;;;;;5042495;28;20196;-80
2022/02/26 02:02:17;;;;;;;11.80;4.70;;;5.30;99.90;;;;;;5040873;28;20526;-80
2022/02/26 02:04:43;;;;;;;12.40;5.95;;;5.30;99.90;;;;;;5045434;28;20525;-80
2022/02/26 02:07:09;;;;;;;15.60;5.03;;;5.30;99.90;;;;;;5041034;28;20201;-80
2022/02/26 02:09:35;;;;;;;13.98;5.78;;;5.30;99.90;;;;;;5027436;28;20603;-80
2022/02/26 02:12:01;;;;;;;17.03;5.80;;;5.40;99.90;;;;;;5042131;28;20170;-81
2022/02/26 02:14:26;;;;;;;12.35;6.85;;;5.40;99.90;;;;;;5044094;28;20579;-80
2022/02/26 02:16:52;;;;;;;11.70;6.80;;;5.40;99.90;;;;;;5043792;28;20170;-80
2022/02/26 02:19:18;;;;;;;12.13;6.87;;;5.50;99.90;;;;;;5042841;28;20189;-80
2022/02/26 02:21:44;;;;;;;13.32;4.85;;;5.50;99.90;;;;;;5044696;28;20598;-80
2022/02/26 02:24:10;;;;;;;13.70;5.30;;;5.60;99.90;;;;;;5045695;28;20200;-77
2022/02/26 02:26:37;;;;;;;10.77;5.03;;;5.60;99.90;;;;;;5053981;28;20619;-76
2022/02/26 02:29:03;;;;;;;9.40;4.32;;;5.60;99.90;;;;;;5054085;28;20165;-76
2022/02/26 02:31:30;;;;;;;6.85;4.05;;;5.70;99.90;;;;;;5052935;28;20192;-77
2022/02/26 02:33:56;;;;;;;13.18;5.53;;;5.70;99.90;;;;;;5060205;28;20245;-77
2022/02/26 02:36:22;;;;;;;12.33;4.90;;;5.80;99.90;;;;;;5052923;28;20244;-77
2022/02/26 02:38:48;;;;;;;12.10;5.13;;;5.80;99.90;;;;;;5052474;28;20579;-76
2022/02/26 02:41:15;;;;;;;14.57;5.93;;;5.80;99.90;;;;;;5052362;28;20595;-76
2022/02/26 02:43:40;;;;;;;9.25;3.97;;;5.90;99.90;;;;;;5052347;28;20179;-77
2022/02/26 02:46:06;;;;;;;10.10;4.80;;;5.90;99.90;;;;;;5053407;28;20675;-76
2022/02/26 02:48:32;;;;;;;10.00;4.60;;;5.90;99.90;;;;;;5052309;28;20671;-76
2022/02/26 02:50:58;;;;;;;7.50;4.00;;;6.00;99.90;;;;;;5052451;28;20596;-76
2022/02/26 02:53:25;;;;;;;11.20;3.63;;;6.00;99.90;;;;;;5052371;28;20742;-76
2022/02/26 02:55:52;;;;;;;12.55;3.92;;;6.10;99.90;;;;;;5053565;28;20662;-76
2022/02/26 02:58:26;;;;;;;6.90;3.92;;;6.10;99.90;;;;;;5035725;28;20572;-77
2022/02/26 03:00:53;;;;;;;7.97;3.55;;;6.10;99.90;;;;;;5052187;28;20203;-77
2022/02/26 03:03:19;;;;;;;8.00;3.92;;;6.20;99.90;;;;;;5053332;28;20176;-76
2022/02/26 03:05:45;;;;;;;11.50;4.75;;;6.20;99.90;;;;;;5052253;28;20201;-76
2022/02/26 03:08:12;;;;;;;9.80;4.05;;;6.20;99.90;;;;;;5053497;28;20538;-76
2022/02/26 03:10:39;;;;;;;5.32;3.65;;;6.20;99.90;;;;;;5058485;28;20193;-76
2022/02/26 03:13:05;;;;;;;10.68;4.15;;;6.20;99.90;;;;;;5052997;28;20389;-76
2022/02/26 03:15:31;;;;;;;16.85;5.60;;;6.20;99.90;;;;;;5051892;28;20180;-76
2022/02/26 03:17:57;;;;;;;10.73;4.07;;;6.20;99.90;;;;;;5053179;28;20167;-77
2022/02/26 03:20:22;;;;;;;10.90;4.40;;;6.20;99.90;;;;;;5051756;28;20699;-76
2022/02/26 03:22:49;;;;;;;7.53;3.50;;;6.20;99.90;;;;;;5052885;28;20157;-76
2022/02/26 03:25:15;;;;;;;11.20;4.37;;;6.20;99.90;;;;;;5052879;28;20578;-76
2022/02/26 03:27:41;;;;;;;10.70;4.20;;;6.20;99.90;;;;;;5046507;28;20591;-76
2022/02/26 03:30:09;;;;;;;7.50;5.27;;;6.30;99.90;;;;;;5032725;28;20235;-76
2022/02/26 03:32:36;;;;;;;12.52;4.78;;;6.30;99.90;;;;;;5031621;28;20177;-76
2022/02/26 03:35:03;;;;;;;11.03;4.60;;;6.20;99.90;;;;;;5031874;28;20196;-76
2022/02/26 03:37:29;;;;;;;13.23;6.10;;;6.20;99.90;;;;;;5031707;28;20577;-76
2022/02/26 03:39:56;;;;;;;12.20;4.15;;;6.20;99.90;;;;;;5030040;28;20574;-76
2022/02/26 03:42:21;;;;;;;7.95;4.25;;;6.10;99.90;;;;;;5031563;28;20166;-76
2022/02/26 03:44:48;;;;;;;9.30;4.53;;;6.10;99.90;;;;;;5015187;28;20174;-76
2022/02/26 03:47:16;;;;;;;10.85;4.45;;;6.10;99.90;;;;;;5035935;28;20208;-76
2022/02/26 03:49:43;;;;;;;11.68;4.85;;;6.00;99.90;;;;;;5015842;28;20244;-76
2022/02/26 03:52:08;;;;;;;8.07;4.18;;;5.90;99.90;;;;;;5032673;28;20249;-77
2022/02/26 03:54:34;;;;;;;10.23;4.47;;;5.90;99.90;;;;;;5031252;28;20265;-76
2022/02/26 03:57:00;;;;;;;9.87;3.90;;;5.80;99.90;;;;;;5031771;28;20518;-76
2022/02/26 03:59:27;;;;;;;12.57;4.78;;;5.70;99.90;;;;;;5032783;28;20197;-76
2022/02/26 04:01:52;;;;;;;10.83;4.50;;;5.60;99.90;;;;;;5032851;28;20172;-76
2022/02/26 04:04:21;;;;;;;11.90;4.20;;;5.50;99.90;;;;;;5031432;28;20169;-76
2022/02/26 04:06:47;;;;;;;9.57;4.10;;;5.40;99.90;;;;;;5031439;28;20291;-76
2022/02/26 04:09:13;;;;;;;9.20;3.60;;;5.30;99.90;;;;;;5032299;28;20721;-76
2022/02/26 04:11:39;;;;;;;8.10;3.30;;;5.30;99.90;;;;;;5030948;28;20600;-76
2022/02/26 04:14:05;;;;;;;8.45;4.03;;;5.20;99.90;;;;;;5031169;28;20209;-76
2022/02/26 04:16:31;;;;;;;8.43;4.40;;;5.10;99.90;;;;;;5030629;28;20197;-76
2022/02/26 04:18:56;;;;;;;12.10;4.40;;;5.00;99.90;;;;;;5031031;28;21144;-76
2022/02/26 04:21:23;;;;;;;10.10;4.93;;;5.00;99.90;;;;;;5030322;28;20612;-76
2022/02/26 04:23:49;;;;;;;5.32;3.45;;;4.90;99.90;;;;;;5032186;28;20177;-76
2022/02/26 04:26:15;;;;;;;10.60;4.80;;;4.90;99.90;;;;;;5036354;28;20710;-76
2022/02/26 04:28:41;;;;;;;9.50;4.50;;;4.80;99.90;;;;;;5031134;28;20935;-76
2022/02/26 04:31:07;;;;;;;11.90;4.60;;;4.80;99.90;;;;;;5030565;28;20197;-76
2022/02/26 04:33:33;;;;;;;9.02;4.80;;;4.80;99.90;;;;;;5030666;28;20205;-76
2022/02/26 04:35:59;;;;;;;11.90;5.20;;;4.70;99.90;;;;;;5031844;28;20264;-76
2022/02/26 04:38:26;;;;;;;8.87;4.77;;;4.70;99.90;;;;;;5030809;28;20181;-76
2022/02/26 04:40:51;;;;;;;8.20;5.00;;;4.70;99.90;;;;;;5039857;28;20706;-76
2022/02/26 04:43:17;;;;;;;10.10;5.97;;;4.60;99.90;;;;;;5051767;28;20263;-76
2022/02/26 04:45:45;;;;;;;10.87;5.27;;;4.60;99.90;;;;;;5051434;28;20256;-75
2022/02/26 04:48:11;;;;;;;8.85;4.95;;;4.60;99.90;;;;;;5050459;28;21128;-75
2022/02/26 04:50:36;;;;;;;13.63;6.00;;;4.60;99.90;;;;;;5050297;28;20188;-76
2022/02/26 04:53:02;;;;;;;9.57;5.70;;;4.60;99.90;;;;;;5050464;28;20626;-76
2022/02/26 04:55:29;;;;;;;9.70;5.50;;;4.60;99.90;;;;;;5050330;28;20545;-76
2022/02/26 04:57:55;;;;;;;15.25;6.70;;;4.60;99.90;;;;;;5051665;28;20167;-76
2022/02/26 05:00:20;;;;;;;12.50;6.40;;;4.60;99.90;;;;;;5051720;28;20275;-76
2022/02/26 05:02:46;;;;;;;11.27;5.47;;;4.60;99.90;;;;;;5057183;28;20177;-76
2022/02/26 05:05:12;;;;;;;9.80;6.70;;;4.70;99.90;;;;;;5052129;28;20572;-75
2022/02/26 05:07:37;;;;;;;13.10;6.80;;;4.70;99.90;;;;;;5052064;28;20312;-75
2022/02/26 05:10:04;;;;;;;9.07;6.30;;;4.70;99.90;;;;;;5050539;28;20193;-75
2022/02/26 05:12:30;;;;;;;10.95;7.57;;;4.80;99.90;;;;;;5050400;28;20177;-76
2022/02/26 05:14:56;;;;;;;12.40;6.17;;;4.80;99.90;;;;;;5051539;28;20176;-76
2022/02/26 05:17:21;;;;;;;10.67;6.10;;;4.80;99.90;;;;;;5051405;28;20172;-76
2022/02/26 05:19:47;;;;;;;10.63;6.50;;;4.90;99.90;;;;;;5049875;28;20204;-76
2022/02/26 05:22:13;;;;;;;14.50;6.30;;;4.90;99.90;;;;;;5050147;28;20564;-75
2022/02/26 05:24:38;;;;;;;15.60;7.40;;;4.90;99.90;;;;;;5051533;28;20256;-76
2022/02/26 05:27:04;;;;;;;14.80;7.13;;;4.90;99.90;;;;;;5051286;28;20200;-75
2022/02/26 05:29:30;;;;;;;16.70;8.00;;;5.00;99.90;;;;;;5054155;28;20193;-76
2022/02/26 05:31:56;;;;;;;9.43;6.80;;;5.00;99.90;;;;;;5055304;28;20195;-76
2022/02/26 05:34:21;;;;;;;13.93;7.37;;;5.00;99.90;;;;;;5053985;28;20172;-76
2022/02/26 05:36:47;;;;;;;11.47;5.60;;;5.00;99.90;;;;;;5054939;28;20551;-76
2022/02/26 05:39:13;;;;;;;11.23;6.20;;;5.00;99.90;;;;;;5054629;28;20603;-75
2022/02/26 05:41:39;;;;;;;11.52;6.95;;;5.10;99.90;;;;;;5034062;28;20220;-75
2022/02/26 05:44:05;;;;;;;12.27;6.63;;;5.10;99.90;;;;;;5033801;28;20247;-76
2022/02/26 05:46:33;;;;;;;11.73;6.68;;;5.10;99.90;;;;;;5033703;28;20635;-76
2022/02/26 05:48:59;;;;;;;11.15;6.70;;;5.20;99.90;;;;;;5033636;28;20164;-76
2022/02/26 05:51:25;;;;;;;13.52;7.32;;;5.20;99.90;;;;;;5033550;28;20557;-76
2022/02/26 05:53:50;;;;;;;12.30;7.30;;;5.30;99.90;;;;;;5045020;28;20174;-76
2022/02/26 05:56:16;;;;;;;11.30;7.77;;;5.30;99.90;;;;;;5029351;28;20180;-76
2022/02/26 05:58:42;;;;;;;10.57;7.47;;;5.40;99.90;;;;;;5036369;28;20195;-76
2022/02/26 06:01:07;;;;;;;10.33;6.90;;;5.40;99.90;;;;;;5054579;28;20189;-76
2022/02/26 06:03:33;;;;;;;12.10;7.20;;;5.50;99.90;;;;;;5054762;28;20183;-76
2022/02/26 06:05:59;;;;;;;9.87;7.70;;;5.60;99.90;;;;;;5054564;28;20197;-76
2022/02/26 06:08:25;;;;;;;8.70;6.53;;;5.70;99.90;;;;;;5054520;28;20173;-76
2022/02/26 06:10:51;;;;;;;13.10;6.77;;;5.70;99.90;;;;;;5053225;28;20217;-76
2022/02/26 06:13:16;;;;;;;11.83;7.20;;;5.80;99.90;;;;;;5054504;28;20621;-76
2022/02/26 06:15:42;;;;;;;9.43;7.80;;;5.80;99.90;;;;;;5054454;28;20535;-76
2022/02/26 06:18:08;;;;;;;17.67;7.33;;;5.90;99.90;;;;;;5059425;28;20181;-76
2022/02/26 06:20:34;;;;;;;11.17;6.50;;;6.00;99.90;;;;;;5054255;28;20192;-76
2022/02/26 06:22:59;;;;;;;12.93;7.53;;;6.00;99.90;;;;;;5053118;28;20173;-76
2022/02/26 06:25:26;;;;;;;12.10;7.90;;;6.00;99.90;;;;;;5054018;28;20215;-76
2022/02/26 06:27:52;;;;;;;11.63;7.45;;;6.10;99.90;;;;;;5052764;28;20183;-76
2022/02/26 06:30:17;;;;;;;19.97;8.53;;;6.10;99.90;;;;;;5041358;28;20189;-76
2022/02/26 06:32:43;;;;;;;16.00;9.37;;;6.20;99.90;;;;;;5039028;28;20583;-77
2022/02/26 06:35:11;;;;;;;26.33;12.60;;;6.30;99.90;;;;;;5054002;28;20561;-76
2022/02/26 06:37:37;;;;;;;19.20;11.10;;;6.30;99.90;;;;;;5054177;28;20571;-77
2022/02/26 06:40:04;;;;;;;19.47;11.33;;;6.40;99.90;;;;;;5053968;28;20551;-77
2022/02/26 06:42:54;;;;;;;25.88;12.02;;;6.40;99.90;;;;;;5040962;28;20588;-76
2022/02/26 06:45:20;;;;;;;20.87;12.63;;;6.40;99.90;;;;;;5049827;28;20188;-77
2022/02/26 06:47:45;;;;;;;25.60;13.50;;;6.50;99.90;;;;;;5046155;28;20200;-77
2022/02/26 06:50:11;;;;;;;32.40;13.97;;;6.50;99.90;;;;;;5053951;28;20210;-77
2022/02/26 06:52:37;;;;;;;29.30;15.87;;;6.60;99.90;;;;;;5053505;28;20184;-76
2022/02/26 06:55:03;;;;;;;26.27;15.23;;;6.60;99.90;;;;;;5037451;28;20621;-77
2022/02/26 06:57:28;;;;;;;26.53;17.60;;;6.60;99.90;;;;;;5054347;28;20192;-76
2022/02/26 06:59:54;;;;;;;30.53;17.47;;;6.70;99.90;;;;;;5057684;28;20959;-77
2022/02/26 07:02:20;;;;;;;29.87;17.77;;;6.70;99.90;;;;;;5054278;28;20177;-76
2022/02/26 07:04:45;;;;;;;30.47;18.20;;;6.70;99.90;;;;;;5054173;28;20245;-76
2022/02/26 07:07:11;;;;;;;22.67;15.37;;;6.70;99.90;;;;;;5052452;28;20197;-76
2022/02/26 07:09:38;;;;;;;25.33;16.70;;;6.70;99.90;;;;;;5057483;28;20293;-77
2022/02/26 07:12:04;;;;;;;25.75;16.58;;;6.70;99.90;;;;;;5058862;28;20165;-76
2022/02/26 07:14:30;;;;;;;24.90;14.35;;;6.80;99.90;;;;;;5054099;28;20227;-76
2022/02/26 07:16:56;;;;;;;21.37;11.30;;;6.80;99.90;;;;;;5052319;28;20569;-75
2022/02/26 07:19:22;;;;;;;18.20;10.50;;;6.80;99.90;;;;;;5053535;28;20165;-76
2022/02/26 07:21:47;;;;;;;15.17;9.60;;;6.80;99.90;;;;;;5053256;28;20252;-76
2022/02/26 07:24:14;;;;;;;23.13;11.10;;;6.90;99.90;;;;;;5052461;28;20272;-76
2022/02/26 07:26:39;;;;;;;29.95;17.98;;;6.90;99.90;;;;;;5058571;28;20201;-75
2022/02/26 07:29:05;;;;;;;18.43;10.83;;;6.90;99.90;;;;;;5041930;28;20602;-75
2022/02/26 07:31:31;;;;;;;21.27;13.73;;;6.90;99.90;;;;;;5040338;28;20653;-75
2022/02/26 07:33:57;;;;;;;29.37;16.60;;;6.90;99.90;;;;;;5044101;28;20632;-76
2022/02/26 07:36:23;;;;;;;32.67;19.10;;;6.90;99.90;;;;;;5054542;28;20183;-76
2022/02/26 07:38:49;;;;;;;27.08;16.75;;;7.00;99.90;;;;;;5035613;28;20269;-77
2022/02/26 07:41:15;;;;;;;28.42;15.80;;;7.00;99.90;;;;;;5052925;28;20702;-77
2022/02/26 07:43:40;;;;;;;33.00;16.80;;;7.10;99.90;;;;;;5052955;28;20248;-77
2022/02/26 07:46:07;;;;;;;32.20;20.00;;;7.10;99.90;;;;;;5052897;28;20745;-77
2022/02/26 07:48:33;;;;;;;31.75;17.65;;;7.10;99.90;;;;;;5035637;28;20170;-78
2022/02/26 07:50:59;;;;;;;36.83;19.23;;;7.20;99.90;;;;;;5050574;28;20197;-77
2022/02/26 07:53:25;;;;;;;29.95;20.80;;;7.20;99.90;;;;;;5054075;28;20161;-77
2022/02/26 07:55:52;;;;;;;25.40;17.03;;;7.20;99.90;;;;;;5055309;28;20233;-77
2022/02/26 07:58:18;;;;;;;31.02;17.55;;;7.20;99.90;;;;;;5056711;28;20237;-77
2022/02/26 08:00:44;;;;;;;33.70;17.60;;;7.30;99.90;;;;;;5051506;28;20233;-77
2022/02/26 08:03:10;;;;;;;36.55;17.95;;;7.40;99.90;;;;;;5045143;28;20174;-79
2022/02/26 08:05:35;;;;;;;28.30;18.10;;;7.40;99.90;;;;;;5043784;28;20610;-78
2022/02/26 08:08:02;;;;;;;29.77;18.23;;;7.50;99.90;;;;;;5042751;28;20583;-78
2022/02/26 08:10:28;;;;;;;31.80;18.70;;;7.60;99.90;;;;;;5041138;28;20196;-78
2022/02/26 08:12:55;;;;;;;34.30;17.87;;;7.60;99.90;;;;;;5060550;28;20169;-78
2022/02/26 08:15:23;;;;;;;32.15;17.42;;;7.60;99.90;;;;;;5060036;28;20576;-78
2022/02/26 08:17:49;;;;;;;26.20;19.98;;;7.80;99.90;;;;;;5059791;28;20223;-77
2022/02/26 08:20:17;;;;;;;34.78;17.08;;;7.80;99.90;;;;;;5056924;28;20288;-77
2022/02/26 08:22:44;;;;;;;26.80;17.23;;;7.90;99.90;;;;;;5053931;28;20561;-77
2022/02/26 08:25:11;;;;;;;31.58;18.80;;;7.90;99.90;;;;;;5050197;28;20177;-78
2022/02/26 08:27:38;;;;;;;32.50;19.20;;;8.00;99.90;;;;;;5036567;28;20220;-77
2022/02/26 08:30:09;;;;;;;32.40;18.88;;;8.00;99.90;;;;;;5038304;28;20189;-77
2022/02/26 08:32:35;;;;;;;30.27;18.13;;;8.10;99.90;;;;;;5035171;28;20257;-77
2022/02/26 08:35:02;;;;;;;26.13;15.60;;;8.10;99.90;;;;;;5037229;28;20639;-77
2022/02/26 08:37:28;;;;;;;35.20;18.30;;;8.10;99.90;;;;;;5038228;28;20244;-77
2022/02/26 08:39:53;;;;;;;29.00;18.03;;;8.20;99.90;;;;;;5037529;28;20194;-77
2022/02/26 08:42:19;;;;;;;28.80;17.30;;;8.20;99.90;;;;;;5036605;28;20584;-77
2022/02/26 08:44:45;;;;;;;39.17;20.53;;;8.30;99.90;;;;;;5035364;28;20208;-77
2022/02/26 08:47:11;;;;;;;33.73;18.73;;;8.30;99.90;;;;;;5038326;28;20635;-77
2022/02/26 08:49:37;;;;;;;33.40;18.20;;;8.40;99.90;;;;;;5039139;28;20203;-78
2022/02/26 08:52:03;;;;;;;29.70;17.83;;;8.50;99.90;;;;;;5036479;28;20170;-77
2022/02/26 08:54:29;;;;;;;30.95;18.45;;;8.60;99.90;;;;;;5034015;28;21108;-76
2022/02/26 08:56:54;;;;;;;29.50;17.43;;;8.60;99.90;;;;;;5031538;28;20177;-76
2022/02/26 08:59:20;;;;;;;30.83;17.30;;;8.70;99.90;;;;;;5031516;28;20173;-77
2022/02/26 09:01:46;;;;;;;36.50;17.87;;;8.80;99.90;;;;;;5034082;28;20165;-77
2022/02/26 09:04:12;;;;;;;34.13;18.97;;;8.80;99.90;;;;;;5025099;28;20673;-77
2022/02/26 09:06:37;;;;;;;30.23;16.93;;;8.90;99.90;;;;;;5046622;28;20234;-78
2022/02/26 09:09:08;;;;;;;28.83;17.60;;;8.90;99.90;;;;;;5067092;28;20598;-78
2022/02/26 09:11:38;;;;;;;31.55;19.23;;;8.90;99.90;;;;;;5060212;28;20588;-79
2022/02/26 09:14:05;;;;;;;34.65;17.20;;;8.90;99.90;;;;;;5057181;28;20271;-80
2022/02/26 09:16:31;;;;;;;32.83;21.05;;;8.80;99.90;;;;;;5044307;28;20693;-78
2022/02/26 09:18:56;;;;;;;33.67;18.65;;;8.80;99.90;;;;;;5037444;28;20181;-78
2022/02/26 09:21:22;;;;;;;35.87;19.30;;;8.70;99.90;;;;;;5052151;28;20240;-77
2022/02/26 09:23:48;;;;;;;25.30;16.80;;;8.70;99.90;;;;;;5047167;28;20166;-77
2022/02/26 09:26:14;;;;;;;28.77;15.23;;;8.70;99.90;;;;;;5061402;28;20209;-77
2022/02/26 09:28:40;;;;;;;28.73;18.03;;;8.60;99.90;;;;;;5045892;28;20518;-76
2022/02/26 09:31:07;;;;;;;35.75;19.52;;;8.60;99.90;;;;;;5054657;28;20608;-78
2022/02/26 09:33:33;;;;;;;32.70;17.63;;;8.70;99.90;;;;;;5056601;28;20168;-77
2022/02/26 09:36:01;;;;;;;29.25;17.88;;;8.70;99.90;;;;;;5067020;28;20180;-78
2022/02/26 09:38:27;;;;;;;34.80;18.42;;;8.80;99.90;;;;;;5049608;28;20181;-77
2022/02/26 09:40:54;;;;;;;31.60;19.63;;;8.90;99.90;;;;;;5055918;28;20218;-77
2022/02/26 09:43:24;;;;;;;31.80;18.42;;;9.10;99.90;;;;;;5058629;28;20209;-77
2022/02/26 09:45:51;;;;;;;25.30;15.75;;;9.20;99.90;;;;;;5060927;28;20197;-77
2022/02/26 09:48:17;;;;;;;25.00;16.20;;;9.40;99.90;;;;;;5058010;28;20227;-77
2022/02/26 09:50:44;;;;;;;22.30;14.48;;;9.60;99.90;;;;;;5057300;28;20209;-78
2022/02/26 09:53:11;;;;;;;31.80;15.88;;;10.10;99.90;;;;;;5060626;28;20170;-78
2022/02/26 09:55:37;;;;;;;25.63;16.38;;;10.80;99.90;;;;;;5066189;28;20198;-77
2022/02/26 09:58:04;;;;;;;29.23;16.80;;;11.30;99.90;;;;;;5066214;28;20673;-77
2022/02/26 10:00:30;;;;;;;32.95;18.10;;;11.90;99.90;;;;;;5062656;28;20197;-78
2022/02/26 10:02:55;;;;;;;24.00;15.40;;;12.20;99.90;;;;;;5056913;28;20238;-78
2022/02/26 10:05:21;;;;;;;24.23;16.27;;;12.50;99.90;;;;;;5065286;28;20575;-78
2022/02/26 10:07:49;;;;;;;29.67;16.80;;;12.80;99.90;;;;;;5049286;28;20201;-78
2022/02/26 10:10:19;;;;;;;29.70;16.37;;;13.00;99.90;;;;;;5057235;28;20209;-78
2022/02/26 10:12:54;;;;;;;22.57;14.33;;;13.30;99.90;;;;;;5054061;28;20584;-78
2022/02/26 10:15:25;;;;;;;32.03;16.20;;;13.50;99.90;;;;;;5055026;28;20602;-78
2022/02/26 10:18:00;;;;;;;26.70;15.67;;;13.60;99.90;;;;;;5058638;28;20599;-78
2022/02/26 10:20:29;;;;;;;23.27;14.40;;;13.60;99.90;;;;;;5055867;28;20683;-78
2022/02/26 10:22:56;;;;;;;23.17;14.13;;;13.60;99.90;;;;;;5049308;28;20582;-77
2022/02/26 10:25:25;;;;;;;21.50;13.67;;;13.60;99.90;;;;;;5051020;28;20626;-77
2022/02/26 10:27:54;;;;;;;23.40;14.67;;;13.50;99.90;;;;;;5040957;28;20609;-78
2022/02/26 10:30:30;;;;;;;23.47;13.13;;;13.30;99.90;;;;;;5055367;28;21007;-77
2022/02/26 10:33:14;;;;;;;23.57;14.50;;;13.30;99.90;;;;;;5055977;28;20575;-77
2022/02/26 10:35:48;;;;;;;16.40;11.30;;;13.60;99.90;;;;;;5017272;28;20669;-78
2022/02/26 10:38:27;;;;;;;23.17;13.70;;;14.00;99.90;;;;;;5043077;28;20587;-78
2022/02/26 10:40:57;;;;;;;17.80;11.37;;;14.50;99.90;;;;;;5056353;28;20602;-78
2022/02/26 10:43:48;;;;;;;18.87;11.87;;;15.10;99.90;;;;;;5052653;28;20587;-77
2022/02/26 10:46:23;;;;;;;17.50;11.50;;;15.50;99.90;;;;;;5053008;28;20730;-77
2022/02/26 10:49:02;;;;;;;18.30;10.97;;;15.90;99.90;;;;;;5029267;28;20641;-77
2022/02/26 10:51:33;;;;;;;14.73;9.90;;;16.30;99.90;;;;;;5050494;28;20603;-77
2022/02/26 10:54:02;;;;;;;21.27;12.43;;;16.50;99.90;;;;;;5056971;28;20643;-78
2022/02/26 10:56:48;;;;;;;19.00;13.23;;;16.40;99.90;;;;;;5066739;28;20564;-78
2022/02/26 10:59:30;;;;;;;19.47;11.20;;;16.30;99.90;;;;;;5054693;28;20660;-78
2022/02/26 11:02:11;;;;;;;21.07;10.57;;;16.30;99.90;;;;;;5058000;28;20584;-78
2022/02/26 11:04:37;;;;;;;18.43;10.33;;;16.10;99.90;;;;;;5055776;28;20576;-78
2022/02/26 11:07:07;;;;;;;17.93;10.80;;;16.10;99.90;;;;;;5052806;28;20636;-78
2022/02/26 11:09:34;;;;;;;16.63;10.23;;;16.20;99.90;;;;;;5041705;28;20611;-78
2022/02/26 11:12:00;;;;;;;24.87;9.60;;;16.50;99.90;;;;;;5065867;28;20607;-79
2022/02/26 11:14:29;;;;;;;19.60;10.17;;;16.70;99.90;;;;;;5060347;28;20632;-77
2022/02/26 11:17:01;;;;;;;13.13;8.10;;;17.00;99.90;;;;;;5042968;28;20583;-77
2022/02/26 11:19:29;;;;;;;18.30;9.30;;;17.20;99.90;;;;;;5047414;28;20601;-78
2022/02/26 11:21:57;;;;;;;21.20;9.93;;;17.10;99.90;;;;;;5059215;28;20571;-78
2022/02/26 11:24:23;;;;;;;15.60;9.57;;;16.60;99.90;;;;;;5053563;28;20576;-77
2022/02/26 11:26:49;;;;;;;21.03;10.10;;;16.20;99.90;;;;;;5062575;28;20641;-78
2022/02/26 11:29:17;;;;;;;14.27;8.97;;;16.10;99.90;;;;;;5039989;28;20181;-78
2022/02/26 11:32:08;;;;;;;18.63;9.50;;;15.90;99.90;;;;;;5066907;28;20582;-78
2022/02/26 11:34:36;;;;;;;15.80;7.57;;;15.70;99.90;;;;;;5063332;28;20588;-78
2022/02/26 11:37:03;;;;;;;15.20;8.40;;;15.50;99.90;;;;;;5046163;28;21173;-78
2022/02/26 11:39:39;;;;;;;19.80;8.87;;;15.20;99.90;;;;;;5038046;28;20576;-79
2022/02/26 11:42:23;;;;;;;14.77;7.23;;;14.90;99.90;;;;;;5030395;28;20582;-79
2022/02/26 11:45:04;;;;;;;11.83;6.60;;;14.60;99.90;;;;;;5013821;28;20612;-79
2022/02/26 11:47:34;;;;;;;15.33;7.83;;;14.20;99.90;;;;;;5043474;28;20611;-78
2022/02/26 11:50:07;;;;;;;15.30;7.73;;;14.10;99.90;;;;;;5042933;28;20592;-78
2022/02/26 11:52:46;;;;;;;14.33;8.00;;;14.20;99.90;;;;;;5039309;28;21124;-78
2022/02/26 11:55:27;;;;;;;13.47;6.70;;;14.50;99.90;;;;;;5026636;28;20653;-77
2022/02/26 11:57:55;;;;;;;10.77;5.23;;;14.80;99.90;;;;;;5041758;28;20668;-77
2022/02/26 12:00:21;;;;;;;11.73;4.40;;;15.00;99.90;;;;;;5042619;28;20604;-77
2022/02/26 12:03:16;;;;;;;12.00;3.87;;;15.00;99.90;;;;;;5047123;28;20599;-77
2022/02/26 12:05:42;;;;;;;10.43;5.20;;;15.10;99.90;;;;;;5050289;28;20580;-78
2022/02/26 12:08:09;;;;;;;11.87;5.37;;;15.20;99.90;;;;;;5040031;28;20603;-78
2022/02/26 12:10:35;;;;;;;8.97;4.80;;;15.30;99.90;;;;;;5034037;28;20678;-78
2022/02/26 12:13:01;;;;;;;5.90;3.33;;;15.60;99.90;;;;;;5025938;28;21159;-77
2022/02/26 12:15:33;;;;;;;8.93;3.87;;;15.80;99.90;;;;;;5051503;28;20640;-77
2022/02/26 12:18:12;;;;;;;7.23;3.17;;;16.10;99.90;;;;;;5047881;28;20723;-78
2022/02/26 12:20:39;;;;;;;8.00;3.60;;;16.30;99.90;;;;;;5030017;28;21162;-78
2022/02/26 12:23:14;;;;;;;10.47;5.20;;;16.40;99.90;;;;;;5044081;28;20666;-78
2022/02/26 12:25:43;;;;;;;11.17;4.00;;;16.20;99.90;;;;;;5046863;28;20567;-77
2022/02/26 12:28:11;;;;;;;7.63;4.70;;;16.10;99.90;;;;;;5044580;28;20604;-78
2022/02/26 12:31:07;;;;;;;6.50;3.50;;;15.90;99.90;;;;;;5029611;28;20611;-78
2022/02/26 12:33:45;;;;;;;11.03;4.17;;;15.50;99.90;;;;;;5033857;28;20585;-77
2022/02/26 12:36:18;;;;;;;10.47;5.33;;;15.10;98.90;;;;;;5042719;28;20927;-78
2022/02/26 12:38:52;;;;;;;8.40;3.80;;;14.90;99.60;;;;;;5043970;28;20904;-77
2022/02/26 12:41:51;;;;;;;7.93;4.20;;;14.80;99.90;;;;;;5035906;28;20610;-78
2022/02/26 12:44:17;;;;;;;13.50;3.97;;;14.60;99.90;;;;;;5047569;28;20602;-77